METAR Data
IDs: Format: Raw Decoded Include TAF

Data at: 1134 UTC 15 Jul 2020

KSLC 151054Z 00000KT 10SM SCT140 19/05 A3006 RMK AO2 SLP124 T01890050
KSLC 150954Z 00000KT 10SM SCT140 18/06 A3005 RMK AO2 SLP122 T01830061
KSLC 150854Z 26003KT 10SM FEW140 19/07 A3005 RMK AO2 SLP118 T01940067 53006
KSLC 150754Z 25007KT 10SM FEW140 20/08 A3004 RMK AO2 SLP118 T02000078
KSLC 150654Z 00000KT 10SM FEW140 22/07 A3003 RMK AO2 SLP112 T02170072 403170178
KSLC 150554Z 00000KT 10SM FEW140 23/08 A3003 RMK AO2 SLP110 T02280078 10311 20228 51015
KSLC 150454Z 34008KT 10SM FEW140 26/04 A3002 RMK AO2 SLP107 T02560039
KSLC 150354Z 35009KT 10SM FEW140 24/07 A3000 RMK AO2 SLP106 T02390072
KSLC 150254Z 34007KT 10SM FEW160 28/03 A2998 RMK AO2 SLP092 T02830033 55005
KSLC 150154Z 36010KT 10SM FEW120 FEW170 30/03 A2997 RMK AO2 SLP092 T03000033
KSLC 150054Z 34009KT 10SM FEW110 FEW180 30/03 A2998 RMK AO2 SLP098 T03000033
KSLC 142354Z 34011KT 10SM FEW110 FEW180 31/03 A2999 RMK AO2 SLP100 T03110033 10317 20272 56010
KSLC 142254Z 32010G16KT 10SM FEW110 FEW180 31/02 A3000 RMK AO2 SLP101 T03110017
KSLC 142154Z 32010KT 10SM FEW120 FEW160 31/01 A3001 RMK AO2 SLP104 T03110011
KSLC 142054Z 33009KT 10SM FEW120 SCT160 30/00 A3003 RMK AO2 SLP110 ACC DSNT E-SE AND S-SW ACSL DSNT NE AND NW T03000000 58009
KSLC 141954Z 35006KT 10SM SCT160 28/M01 A3005 RMK AO2 SLP117 ACC NE-SE AND DSNT S-SW T02831006
KSLC 141854Z COR 31010KT 10SM SCT150 28/M01 A3005 RMK AO2 SLP121 ACC NE AND SE-SW T02781006
KSLC 141754Z 34010G16KT 10SM SCT150 28/01 A3006 RMK AO2 SLP119 ACC NW-NE AND DSNT SE-SW T02780011 10278 20178 51003
KSLC 141710Z 33008KT 8SM FEW002 26/02 A3006 RMK AO2 T02610022
KSLC 141654Z 34008KT 10SM SCT150 26/02 A3005 RMK AO2 SLP119 ACC SW AND NW-NE AND DSNT SE-S T02560017
KSLC 141554Z 33006KT 10SM BKN150 BKN220 24/01 A3005 RMK AO2 SLP120 ACC NW-NE AND DSNT S CCSL SE T02390006
KSLC 141501Z COR 30005KT 10SM FEW002 FEW120 SCT150 23/03 A3005 RMK AO2 ACC NW-NE T02330033
KSLC 141454Z 30006KT 10SM FEW120 SCT150 23/04 A3005 RMK AO2 SLP114 ACC NW-NE AND DSNT SW T02330039 51013
KSLC 141354Z 19003KT 10SM SCT150 21/06 A3004 RMK AO2 SLP111 ACC NW-NE T02110061
KSLC 141254Z 00000KT 10SM SCT100 18/12 A3002 RMK AO2 SLP109 T01830117
KSLC 141154Z 00000KT 10SM SCT120 18/08 A3000 RMK AO2 SLP102 T01830078 10239 20183 53012
KSLC 141054Z 29005KT 10SM CLR 21/06 A2998 RMK AO2 SLP093 T02060061
KSLC 140954Z 30003KT 10SM CLR 21/08 A2997 RMK AO2 SLP088 T02110083
KSLC 140854Z 00000KT 10SM CLR 21/09 A2996 RMK AO2 SLP085 T02110089 52013
KSLC 140754Z 32005KT 10SM CLR 22/08 A2995 RMK AO2 SLP081 T02220078
KSLC 140654Z 36006KT 10SM CLR 22/09 A2993 RMK AO2 SLP074 T02220089 403330211
KSLC 140554Z 33008KT 10SM CLR 24/09 A2992 RMK AO2 SLP071 T02390089 10333 20239 53020
KSLC 140454Z 32013KT 10SM CLR 26/09 A2990 RMK AO2 SLP063 T02560089
KSLC 140354Z 35007KT 10SM FEW100 27/02 A2987 RMK AO2 SLP052 T02670017
KSLC 140254Z 35005KT 10SM FEW100 FEW200 30/M01 A2985 RMK AO2 SLP045 T03001006 55004
KSLC 140154Z 02005KT 10SM FEW100 32/M02 A2985 RMK AO2 SLP042 T03221022
KSLC 140054Z 36010KT 10SM FEW100 FEW230 33/M02 A2985 RMK AO2 SLP044 CB DSNT SE T03281022
KSLC 132354Z 01011G16KT 10SM FEW100 FEW230 33/M01 A2987 RMK AO2 SLP051 CB DSNT SE AND S T03281006 10333 20294 56019